Time;durP1;ratioP1;P1;durP2;ratioP2;P2;SDS_P1;SDS_P2;PMS_P1;PMS_P2;Temp;Humidity;BMP_temperature;BMP_pressure;BME280_temperature;BME280_humidity;BME280_pressure;Samples;Min_cycle;Max_cycle;Signal;HPM_P1;HPM_P2
2023/06/03 00:00:15;;;;;;;7.90;3.95;;;15.60;99.90;;;;;;5095013;28;20115;-84
2023/06/03 00:02:41;;;;;;;5.10;4.22;;;14.60;99.90;;;;;;5095176;28;20016;-84
2023/06/03 00:05:07;;;;;;;11.82;4.47;;;14.70;99.90;;;;;;5094339;28;20042;-84
2023/06/03 00:07:33;;;;;;;5.25;4.10;;;14.50;99.90;;;;;;5095021;28;20024;-84
2023/06/03 00:09:59;;;;;;;9.77;5.30;;;14.50;99.90;;;;;;5094817;28;20056;-84
2023/06/03 00:12:24;;;;;;;8.57;4.13;;;15.60;99.90;;;;;;5094374;28;20082;-84
2023/06/03 00:14:50;;;;;;;9.90;4.60;;;14.40;99.90;;;;;;5094601;28;20069;-85
2023/06/03 00:17:16;;;;;;;8.90;4.18;;;14.20;99.90;;;;;;5094735;28;20026;-85
2023/06/03 00:19:42;;;;;;;8.65;4.50;;;14.30;99.90;;;;;;5093912;28;20059;-84
2023/06/03 00:22:08;;;;;;;5.63;4.00;;;15.40;99.90;;;;;;5094599;28;20023;-84
2023/06/03 00:24:34;;;;;;;8.30;5.00;;;13.70;99.90;;;;;;5094408;28;20467;-84
2023/06/03 00:26:59;;;;;;;7.97;4.40;;;14.20;99.90;;;;;;5093769;28;20024;-84
2023/06/03 00:29:25;;;;;;;8.30;4.93;;;14.30;99.90;;;;;;5094458;28;20016;-84
2023/06/03 00:31:51;;;;;;;9.27;4.93;;;14.90;99.90;;;;;;5094638;28;20042;-84
2023/06/03 00:34:17;;;;;;;5.40;4.53;;;14.10;99.90;;;;;;5093742;28;20099;-84
2023/06/03 00:36:43;;;;;;;5.05;4.40;;;14.00;99.90;;;;;;5094379;28;20178;-84
2023/06/03 00:39:10;;;;;;;6.18;4.63;;;14.00;99.90;;;;;;5094358;28;20056;-84
2023/06/03 00:41:35;;;;;;;6.25;4.50;;;14.00;99.90;;;;;;5093484;28;20036;-84
2023/06/03 00:44:01;;;;;;;7.25;4.60;;;14.00;99.90;;;;;;5094099;28;20036;-84
2023/06/03 00:46:27;;;;;;;7.18;4.45;;;14.00;99.90;;;;;;5094133;28;20047;-84
2023/06/03 00:48:53;;;;;;;5.47;3.88;;;14.00;99.90;;;;;;5093453;28;20117;-84
2023/06/03 00:51:20;;;;;;;8.85;4.63;;;14.00;99.90;;;;;;5094121;28;20024;-84
2023/06/03 00:53:45;;;;;;;10.98;4.70;;;14.00;99.90;;;;;;5093871;28;20040;-84
2023/06/03 00:56:13;;;;;;;6.90;4.60;;;13.80;99.90;;;;;;5093228;28;20030;-84
2023/06/03 00:58:38;;;;;;;9.45;4.22;;;14.00;99.90;;;;;;5093695;28;20032;-84
2023/06/03 01:01:04;;;;;;;9.35;5.07;;;14.00;99.90;;;;;;5093466;28;20089;-84
2023/06/03 01:03:30;;;;;;;5.55;4.10;;;13.50;99.90;;;;;;5094169;28;20115;-84
2023/06/03 01:06:07;;;;;;;4.85;4.35;;;14.00;99.90;;;;;;5093758;28;20410;-84
2023/06/03 01:08:57;;;;;;;6.65;3.92;;;14.00;99.90;;;;;;5093079;28;20433;-84
2023/06/03 01:11:42;;;;;;;4.88;4.03;;;14.00;99.90;;;;;;5094139;28;20038;-84
2023/06/03 01:14:22;;;;;;;22.92;4.35;;;13.70;99.90;;;;;;5093779;28;20078;-85
2023/06/03 01:16:50;;;;;;;9.50;4.40;;;14.10;99.90;;;;;;5092918;28;20028;-84
2023/06/03 01:19:36;;;;;;;7.38;4.43;;;14.10;99.90;;;;;;5093511;28;20020;-85
2023/06/03 01:22:03;;;;;;;7.45;4.68;;;14.10;99.90;;;;;;5093261;28;20111;-84
2023/06/03 01:24:32;;;;;;;5.72;4.22;;;14.10;99.90;;;;;;5093575;28;20111;-84
2023/06/03 01:26:58;;;;;;;8.55;4.40;;;14.00;99.90;;;;;;5093432;28;20024;-84
2023/06/03 01:29:25;;;;;;;6.65;4.20;;;13.90;99.90;;;;;;5092684;28;20136;-84
2023/06/03 01:31:54;;;;;;;6.20;3.70;;;13.90;99.90;;;;;;5093375;28;20052;-84
2023/06/03 01:34:20;;;;;;;8.30;4.72;;;13.00;99.90;;;;;;5093487;28;20020;-84
2023/06/03 01:36:46;;;;;;;5.50;4.30;;;14.00;99.90;;;;;;5092985;28;20085;-84
2023/06/03 01:39:12;;;;;;;10.20;4.10;;;14.10;99.90;;;;;;5093367;28;20461;-84
2023/06/03 01:41:42;;;;;;;8.57;4.78;;;14.10;99.90;;;;;;5093305;28;20099;-84
2023/06/03 01:44:08;;;;;;;5.93;4.13;;;14.00;99.90;;;;;;5092520;28;20020;-84
2023/06/03 01:46:35;;;;;;;8.43;4.68;;;14.00;99.90;;;;;;5093038;28;20047;-84
2023/06/03 01:49:02;;;;;;;3.95;3.55;;;13.90;99.90;;;;;;5093131;28;20446;-84
2023/06/03 01:51:28;;;;;;;8.95;4.82;;;13.90;99.90;;;;;;5092489;28;20035;-84
2023/06/03 01:53:53;;;;;;;8.95;4.38;;;13.80;99.90;;;;;;5092682;28;20044;-84
2023/06/03 01:56:19;;;;;;;7.07;4.57;;;13.10;99.90;;;;;;5092917;28;20031;-84
2023/06/03 01:58:45;;;;;;;8.57;4.65;;;13.70;99.90;;;;;;5091985;28;20046;-84
2023/06/03 02:01:11;;;;;;;9.43;5.53;;;13.70;99.90;;;;;;5092958;28;20028;-84
2023/06/03 02:03:36;;;;;;;5.88;4.90;;;13.60;99.90;;;;;;5093064;28;20494;-84
2023/06/03 02:06:02;;;;;;;6.60;4.60;;;13.60;99.90;;;;;;5092237;28;20032;-84
2023/06/03 02:08:28;;;;;;;8.02;5.00;;;13.60;99.90;;;;;;5093130;28;20020;-84
2023/06/03 02:10:53;;;;;;;5.68;5.07;;;13.60;99.90;;;;;;5092893;28;20031;-84
2023/06/03 02:13:20;;;;;;;7.65;4.30;;;13.60;99.90;;;;;;5092570;28;20028;-84
2023/06/03 02:15:45;;;;;;;6.75;4.65;;;13.50;99.90;;;;;;5092686;28;20078;-84
2023/06/03 02:18:11;;;;;;;6.38;4.07;;;13.50;99.90;;;;;;5092701;28;20024;-84
2023/06/03 02:20:37;;;;;;;9.68;4.93;;;12.60;99.90;;;;;;5092208;28;20024;-84
2023/06/03 02:23:02;;;;;;;8.27;4.65;;;13.40;99.90;;;;;;5093045;28;20020;-85
2023/06/03 02:25:28;;;;;;;7.80;4.93;;;13.40;99.90;;;;;;5092340;28;20036;-84
2023/06/03 02:27:58;;;;;;;14.60;5.78;;;13.40;99.90;;;;;;5092764;28;20055;-84
2023/06/03 02:30:24;;;;;;;10.40;4.80;;;13.40;99.90;;;;;;5092672;28;20060;-84
2023/06/03 02:32:50;;;;;;;6.00;5.18;;;13.40;99.90;;;;;;5092120;28;20028;-84
2023/06/03 02:35:15;;;;;;;7.30;4.07;;;13.50;99.90;;;;;;5092824;28;20103;-84
2023/06/03 02:37:41;;;;;;;6.38;5.03;;;13.00;99.90;;;;;;5092756;28;20024;-84
2023/06/03 02:40:09;;;;;;;6.53;5.10;;;13.60;99.90;;;;;;5092075;28;20028;-84
2023/06/03 02:42:37;;;;;;;8.50;4.65;;;13.70;99.90;;;;;;5092585;28;20032;-84
2023/06/03 02:45:02;;;;;;;11.90;4.65;;;12.90;99.90;;;;;;5092800;28;20120;-84
2023/06/03 02:47:28;;;;;;;8.82;4.70;;;13.80;99.90;;;;;;5092191;28;20434;-84
2023/06/03 02:49:53;;;;;;;6.35;4.53;;;13.80;99.90;;;;;;5092572;28;20035;-84
2023/06/03 02:52:20;;;;;;;4.30;3.88;;;13.80;99.90;;;;;;5092696;28;20039;-84
2023/06/03 02:54:45;;;;;;;5.55;4.25;;;13.80;99.90;;;;;;5091629;28;20131;-84
2023/06/03 02:57:11;;;;;;;7.15;4.55;;;13.80;99.90;;;;;;5092278;28;20157;-84
2023/06/03 02:59:36;;;;;;;9.43;5.20;;;13.60;99.90;;;;;;5092749;28;20070;-84
2023/06/03 03:02:02;;;;;;;8.70;5.40;;;13.80;99.90;;;;;;5091889;28;20020;-84
2023/06/03 03:04:33;;;;;;;8.00;4.68;;;13.10;99.90;;;;;;5092347;28;20021;-85
2023/06/03 03:06:59;;;;;;;7.68;4.53;;;13.80;99.90;;;;;;5092686;28;20035;-84
2023/06/03 03:09:25;;;;;;;4.88;4.25;;;13.80;99.90;;;;;;5092953;28;20384;-84
2023/06/03 03:11:50;;;;;;;9.60;5.40;;;13.70;99.90;;;;;;5095964;28;20028;-84
2023/06/03 03:14:17;;;;;;;5.53;4.90;;;13.70;99.90;;;;;;5096130;28;20045;-84
2023/06/03 03:16:43;;;;;;;6.70;4.60;;;13.70;99.90;;;;;;5095446;28;20102;-84
2023/06/03 03:19:09;;;;;;;8.07;4.72;;;13.70;99.90;;;;;;5095856;28;20479;-84
2023/06/03 03:21:35;;;;;;;7.38;4.47;;;13.70;99.90;;;;;;5095556;28;20103;-84
2023/06/03 03:24:01;;;;;;;6.68;4.43;;;13.70;99.90;;;;;;5095670;28;20064;-84
2023/06/03 03:26:28;;;;;;;7.20;5.03;;;13.70;99.90;;;;;;5095463;28;20081;-84
2023/06/03 03:28:54;;;;;;;6.95;4.93;;;13.60;99.90;;;;;;5094946;28;20111;-84
2023/06/03 03:31:20;;;;;;;7.57;5.18;;;13.60;99.90;;;;;;5095841;28;20108;-84
2023/06/03 03:33:48;;;;;;;6.40;4.25;;;13.50;99.90;;;;;;5095663;28;20030;-84
2023/06/03 03:36:22;;;;;;;6.28;4.55;;;12.90;99.90;;;;;;5094888;28;20107;-84
2023/06/03 03:39:00;;;;;;;14.88;5.72;;;13.60;99.90;;;;;;5095411;28;20024;-84
2023/06/03 03:41:25;;;;;;;5.82;4.68;;;13.60;99.90;;;;;;5095853;28;20024;-84
2023/06/03 03:43:51;;;;;;;8.38;4.90;;;14.60;99.90;;;;;;5094762;28;20050;-84
2023/06/03 03:46:18;;;;;;;5.63;5.03;;;13.60;99.90;;;;;;5098301;28;20066;-84
2023/06/03 03:48:45;;;;;;;10.88;4.55;;;13.60;99.90;;;;;;5099400;28;20384;-84
2023/06/03 03:51:12;;;;;;;8.85;5.13;;;13.00;99.90;;;;;;5094746;28;20039;-84
2023/06/03 03:53:43;;;;;;;7.90;4.50;;;13.50;99.90;;;;;;5094921;28;20024;-84
2023/06/03 03:56:09;;;;;;;6.55;4.45;;;13.60;99.90;;;;;;5095330;28;20020;-84
2023/06/03 03:58:41;;;;;;;12.00;4.70;;;13.60;99.90;;;;;;5094439;28;20540;-84
2023/06/03 04:01:16;;;;;;;12.98;4.82;;;13.60;99.90;;;;;;5095228;28;20077;-85
2023/06/03 04:03:45;;;;;;;5.95;4.50;;;13.60;99.90;;;;;;5095107;28;20035;-84
2023/06/03 04:06:12;;;;;;;8.15;4.30;;;13.00;99.90;;;;;;5094408;28;20040;-85
2023/06/03 04:08:45;;;;;;;9.02;4.90;;;13.40;99.90;;;;;;5095072;28;20024;-85
2023/06/03 04:11:20;;;;;;;6.10;4.47;;;12.60;99.90;;;;;;5094091;28;20060;-85
2023/06/03 04:13:46;;;;;;;5.95;4.85;;;13.40;99.90;;;;;;5094937;28;20035;-85
2023/06/03 04:16:34;;;;;;;6.65;4.28;;;13.40;99.90;;;;;;5094801;28;20024;-84
2023/06/03 04:19:03;;;;;;;6.05;4.55;;;13.40;99.90;;;;;;5094197;28;20050;-85
2023/06/03 04:21:30;;;;;;;5.05;4.55;;;13.30;99.90;;;;;;5094197;28;20028;-85
2023/06/03 04:23:55;;;;;;;10.43;5.15;;;13.20;99.90;;;;;;5094698;28;20032;-85
2023/06/03 04:26:21;;;;;;;8.45;5.07;;;13.10;99.90;;;;;;5094286;28;20024;-85
2023/06/03 04:28:47;;;;;;;6.57;4.38;;;13.00;99.90;;;;;;5094387;28;20453;-85
2023/06/03 04:31:12;;;;;;;6.07;4.15;;;13.10;99.90;;;;;;5094453;28;20051;-85
2023/06/03 04:33:38;;;;;;;5.15;4.63;;;13.10;99.90;;;;;;5094053;28;20027;-85
2023/06/03 04:36:03;;;;;;;11.40;5.03;;;13.20;99.90;;;;;;5094217;28;20115;-85
2023/06/03 04:38:29;;;;;;;4.90;4.40;;;13.30;99.90;;;;;;5094365;28;20024;-85
2023/06/03 04:40:55;;;;;;;6.13;4.65;;;13.40;99.90;;;;;;5093608;28;20107;-85
2023/06/03 04:43:22;;;;;;;7.00;4.35;;;14.30;99.90;;;;;;5094202;28;20024;-86
2023/06/03 04:45:49;;;;;;;7.57;4.65;;;13.30;99.90;;;;;;5094096;28;20497;-85
2023/06/03 04:48:15;;;;;;;5.50;4.38;;;13.30;99.90;;;;;;5093664;28;20032;-85
2023/06/03 04:50:43;;;;;;;6.28;4.40;;;13.30;99.90;;;;;;5094547;28;20028;-85
2023/06/03 04:53:10;;;;;;;5.50;4.07;;;13.40;99.90;;;;;;5093548;28;20077;-85
2023/06/03 04:55:35;;;;;;;7.80;4.78;;;13.20;99.90;;;;;;5093916;28;20131;-85
2023/06/03 04:58:02;;;;;;;5.55;4.45;;;13.30;99.90;;;;;;5093930;28;20051;-85
2023/06/03 05:00:28;;;;;;;6.05;4.20;;;13.20;99.90;;;;;;5093389;28;20028;-85
2023/06/03 05:02:56;;;;;;;5.03;4.30;;;13.20;99.90;;;;;;5093997;28;20020;-85
2023/06/03 05:05:24;;;;;;;8.68;5.03;;;13.20;99.90;;;;;;5094194;28;20032;-85
2023/06/03 05:07:50;;;;;;;7.10;4.10;;;13.90;99.90;;;;;;5093292;28;20020;-85
2023/06/03 05:10:16;;;;;;;9.48;4.47;;;13.30;99.90;;;;;;5104394;28;20409;-86
2023/06/03 05:12:41;;;;;;;8.85;4.00;;;13.40;99.90;;;;;;5093646;28;20020;-86
2023/06/03 05:15:07;;;;;;;7.75;4.30;;;13.50;99.90;;;;;;5092879;28;20039;-85
2023/06/03 05:17:33;;;;;;;7.85;3.83;;;13.60;99.90;;;;;;5093641;28;20016;-86
2023/06/03 05:19:58;;;;;;;8.35;4.15;;;13.60;99.90;;;;;;5093615;28;20418;-86
2023/06/03 05:22:24;;;;;;;4.85;3.75;;;13.70;99.90;;;;;;5093070;28;20107;-86
2023/06/03 05:24:50;;;;;;;6.05;4.32;;;13.70;99.90;;;;;;5093341;28;20553;-86
2023/06/03 05:27:16;;;;;;;5.72;3.80;;;13.80;99.90;;;;;;5093309;28;20062;-85
2023/06/03 05:29:42;;;;;;;8.15;3.30;;;13.80;99.90;;;;;;5093011;28;20111;-86
2023/06/03 05:32:08;;;;;;;5.32;3.00;;;13.90;99.90;;;;;;5092735;28;20137;-86
2023/06/03 05:34:33;;;;;;;5.47;3.42;;;14.00;99.90;;;;;;5093552;28;20024;-86
2023/06/03 05:36:59;;;;;;;4.70;3.58;;;14.10;99.90;;;;;;5092363;28;20391;-86
2023/06/03 05:39:24;;;;;;;5.68;3.30;;;14.10;99.90;;;;;;5093245;28;20023;-86
2023/06/03 05:41:50;;;;;;;4.32;3.22;;;14.10;99.90;;;;;;5093314;28;20028;-86
2023/06/03 05:44:15;;;;;;;4.22;3.30;;;13.50;99.90;;;;;;5092769;28;20024;-86
2023/06/03 05:46:41;;;;;;;3.85;3.28;;;14.10;99.90;;;;;;5092898;28;20377;-86
2023/06/03 05:49:06;;;;;;;20.15;3.78;;;14.20;99.90;;;;;;5093009;28;20585;-86
2023/06/03 05:51:32;;;;;;;7.00;3.33;;;14.20;99.90;;;;;;5092354;28;20065;-86
2023/06/03 05:53:57;;;;;;;4.95;3.22;;;14.30;99.90;;;;;;5093080;28;20075;-86
2023/06/03 05:56:23;;;;;;;6.93;3.50;;;14.30;99.90;;;;;;5092356;28;20128;-86
2023/06/03 05:58:48;;;;;;;4.95;3.08;;;14.40;99.90;;;;;;5092796;28;20058;-86
2023/06/03 06:01:14;;;;;;;4.35;2.90;;;14.40;99.90;;;;;;5093330;28;20055;-86
2023/06/03 06:03:41;;;;;;;3.67;3.38;;;14.70;99.90;;;;;;5092737;28;20028;-86
2023/06/03 06:06:06;;;;;;;3.45;3.13;;;14.70;99.90;;;;;;5093063;28;20043;-86
2023/06/03 06:08:32;;;;;;;7.28;3.53;;;14.50;99.90;;;;;;5093113;28;20368;-86
2023/06/03 06:10:57;;;;;;;5.97;2.80;;;14.90;99.90;;;;;;5092219;28;20028;-86
2023/06/03 06:13:23;;;;;;;7.72;2.80;;;14.60;99.90;;;;;;5093129;28;20429;-86
2023/06/03 06:16:02;;;;;;;5.30;3.22;;;14.70;99.90;;;;;;5093140;28;20024;-86
2023/06/03 06:18:29;;;;;;;4.22;3.20;;;14.70;99.90;;;;;;5092290;28;20107;-85
2023/06/03 06:20:55;;;;;;;8.40;3.40;;;14.70;99.90;;;;;;5092931;28;20032;-86
2023/06/03 06:23:21;;;;;;;4.78;3.10;;;14.70;99.90;;;;;;5092791;28;20047;-86
2023/06/03 06:25:48;;;;;;;7.10;2.80;;;14.30;99.90;;;;;;5092507;28;20043;-86
2023/06/03 06:28:17;;;;;;;6.40;3.33;;;14.70;99.90;;;;;;5093073;28;20024;-86
2023/06/03 06:30:44;;;;;;;4.55;3.05;;;14.70;99.90;;;;;;5092971;28;20028;-86
2023/06/03 06:33:13;;;;;;;4.68;2.88;;;14.70;99.90;;;;;;5103003;28;20035;-85
2023/06/03 06:35:38;;;;;;;6.85;2.50;;;14.80;99.90;;;;;;5092942;28;20484;-86
2023/06/03 06:38:04;;;;;;;5.57;2.33;;;15.00;99.90;;;;;;5092717;28;20028;-86
2023/06/03 06:40:33;;;;;;;9.38;2.30;;;14.90;99.90;;;;;;5092126;28;20028;-86
2023/06/03 06:42:59;;;;;;;2.90;2.13;;;15.00;99.90;;;;;;5093457;28;20102;-86
2023/06/03 06:45:28;;;;;;;4.78;2.42;;;15.10;99.90;;;;;;5096310;28;20591;-86
2023/06/03 06:48:16;;;;;;;4.80;2.88;;;15.10;99.90;;;;;;5095849;28;20425;-85
2023/06/03 06:50:50;;;;;;;4.97;2.10;;;14.50;99.90;;;;;;5092737;28;20499;-86
2023/06/03 06:53:18;;;;;;;7.13;2.17;;;15.20;99.90;;;;;;5095800;28;20616;-86
2023/06/03 06:55:52;;;;;;;5.03;2.88;;;15.20;99.90;;;;;;5096236;28;20052;-86
2023/06/03 06:58:19;;;;;;;6.25;2.78;;;15.30;99.90;;;;;;5096536;28;20032;-86
2023/06/03 07:00:46;;;;;;;4.38;2.10;;;15.50;99.90;;;;;;5095546;28;20070;-86
2023/06/03 07:03:19;;;;;;;7.13;2.22;;;15.40;99.90;;;;;;5096149;28;20479;-87
2023/06/03 07:05:52;;;;;;;7.32;1.77;;;15.30;99.90;;;;;;5096053;28;20032;-87
2023/06/03 07:08:18;;;;;;;10.23;2.08;;;15.40;99.90;;;;;;5095501;28;20078;-86
2023/06/03 07:10:44;;;;;;;3.30;1.92;;;14.50;99.90;;;;;;5096258;28;20028;-87
2023/06/03 07:13:10;;;;;;;4.63;2.35;;;15.60;99.90;;;;;;5096066;28;20027;-86
2023/06/03 07:15:39;;;;;;;3.70;1.95;;;15.70;99.90;;;;;;5095258;28;20074;-86
2023/06/03 07:18:06;;;;;;;4.53;2.20;;;17.00;99.90;;;;;;5096226;28;20035;-86
2023/06/03 07:20:35;;;;;;;6.57;2.45;;;15.50;99.90;;;;;;5096065;28;20126;-86
2023/06/03 07:23:01;;;;;;;6.78;2.08;;;15.70;99.90;;;;;;5095359;28;20087;-86
2023/06/03 07:25:35;;;;;;;3.47;2.30;;;15.80;99.90;;;;;;5095699;28;20376;-86
2023/06/03 07:28:07;;;;;;;2.92;2.40;;;15.80;99.90;;;;;;5095163;28;20039;-86
2023/06/03 07:30:35;;;;;;;2.75;2.20;;;16.00;99.90;;;;;;5095895;28;20384;-87
2023/06/03 07:33:02;;;;;;;13.27;2.00;;;16.20;99.90;;;;;;5087940;28;20028;-87
2023/06/03 07:35:28;;;;;;;3.20;2.47;;;15.90;99.90;;;;;;5095203;28;20020;-87
2023/06/03 07:37:55;;;;;;;2.90;2.20;;;16.00;99.90;;;;;;5095538;28;20032;-86
2023/06/03 07:40:40;;;;;;;6.60;1.98;;;16.00;99.90;;;;;;5095473;28;20502;-87
2023/06/03 07:43:06;;;;;;;5.07;2.30;;;16.00;99.90;;;;;;5094653;28;20028;-87
2023/06/03 07:45:34;;;;;;;5.47;2.45;;;16.10;99.90;;;;;;5095319;28;20033;-87
2023/06/03 07:48:02;;;;;;;3.47;2.33;;;16.10;99.90;;;;;;5095481;28;20024;-85
2023/06/03 07:50:28;;;;;;;6.85;2.47;;;16.20;99.90;;;;;;5094830;28;20031;-86
2023/06/03 07:53:04;;;;;;;5.15;2.20;;;16.20;99.90;;;;;;5095281;28;20028;-87
2023/06/03 07:55:43;;;;;;;12.52;2.25;;;16.20;99.90;;;;;;5099031;28;20040;-86
2023/06/03 07:58:12;;;;;;;6.38;2.63;;;16.20;99.90;;;;;;5098365;28;20024;-85
2023/06/03 08:00:48;;;;;;;5.47;2.05;;;16.30;99.90;;;;;;5095222;28;20471;-85
2023/06/03 08:03:18;;;;;;;2.20;1.90;;;16.40;99.90;;;;;;5094449;28;20085;-86
2023/06/03 08:05:47;;;;;;;2.80;2.00;;;16.40;99.90;;;;;;5095276;28;20032;-86
2023/06/03 08:08:14;;;;;;;3.88;2.00;;;16.50;99.90;;;;;;5095095;28;20032;-86
2023/06/03 08:10:42;;;;;;;6.30;1.95;;;16.60;99.90;;;;;;5094376;28;20093;-86
2023/06/03 08:13:07;;;;;;;5.03;1.92;;;16.70;99.90;;;;;;5095024;28;20024;-86
2023/06/03 08:15:35;;;;;;;7.00;1.80;;;17.20;99.70;;;;;;5094954;28;20028;-86
2023/06/03 08:18:06;;;;;;;5.38;1.80;;;16.90;98.20;;;;;;5094081;28;20521;-85
2023/06/03 08:20:33;;;;;;;5.00;2.00;;;16.90;98.90;;;;;;5094680;28;20380;-86
2023/06/03 08:22:59;;;;;;;4.25;2.20;;;16.90;98.20;;;;;;5094849;28;20089;-85
2023/06/03 08:25:25;;;;;;;3.60;1.80;;;17.00;97.90;;;;;;5094049;28;20119;-86
2023/06/03 08:27:52;;;;;;;6.93;1.80;;;17.10;98.10;;;;;;5094898;28;20065;-86
2023/06/03 08:30:20;;;;;;;9.93;2.10;;;17.10;98.10;;;;;;5094599;28;20028;-86
2023/06/03 08:32:46;;;;;;;6.85;2.08;;;17.70;98.20;;;;;;5093743;28;20121;-86
2023/06/03 08:35:13;;;;;;;3.25;1.50;;;17.20;97.70;;;;;;5094381;28;20111;-85
2023/06/03 08:37:39;;;;;;;3.53;1.50;;;17.30;97.20;;;;;;5094383;28;20166;-85
2023/06/03 08:40:09;;;;;;;6.63;2.05;;;17.20;96.90;;;;;;5093654;28;20045;-85
2023/06/03 08:42:46;;;;;;;1.90;1.70;;;17.40;97.80;;;;;;5094229;28;20024;-85
2023/06/03 08:45:17;;;;;;;16.23;2.60;;;17.40;96.60;;;;;;5093130;28;20380;-86
2023/06/03 08:47:45;;;;;;;;;;;17.40;96.60;;;;;;5094875;28;20111;-85
2023/06/03 08:50:11;;;;;;;5.78;1.83;;;17.40;96.10;;;;;;5094281;28;20004;-85
2023/06/03 08:52:42;;;;;;;1.63;1.50;;;17.20;96.00;;;;;;5093173;28;20043;-85
2023/06/03 08:55:11;;;;;;;9.02;2.17;;;17.80;96.20;;;;;;5093736;28;20044;-85
2023/06/03 08:58:15;;;;;;;4.40;1.67;;;17.90;96.20;;;;;;5094151;28;20032;-85
2023/06/03 09:00:42;;;;;;;2.30;1.60;;;17.60;96.20;;;;;;5091637;28;20555;-85
2023/06/03 09:03:11;;;;;;;6.75;1.70;;;17.70;96.80;;;;;;5093755;28;20081;-85
2023/06/03 09:05:38;;;;;;;6.35;1.98;;;17.60;96.80;;;;;;5093729;28;20047;-85
2023/06/03 09:08:05;;;;;;;2.58;1.58;;;17.90;96.90;;;;;;5093292;28;20027;-85
2023/06/03 09:10:32;;;;;;;3.55;1.60;;;18.30;96.50;;;;;;5093982;28;20028;-85
2023/06/03 09:12:58;;;;;;;2.67;1.58;;;18.40;96.50;;;;;;5093886;28;20416;-85
2023/06/03 09:15:24;;;;;;;5.22;1.90;;;17.80;96.00;;;;;;5092950;28;20376;-85
2023/06/03 09:17:50;;;;;;;3.95;1.70;;;17.80;96.10;;;;;;5094817;28;20052;-85
2023/06/03 09:20:16;;;;;;;4.72;1.38;;;17.80;96.60;;;;;;5099721;28;20089;-85
2023/06/03 09:22:43;;;;;;;3.72;1.33;;;17.60;96.60;;;;;;5093217;28;20472;-85
2023/06/03 09:25:09;;;;;;;2.80;1.45;;;18.00;96.40;;;;;;5093190;28;20032;-85
2023/06/03 09:27:35;;;;;;;5.45;1.90;;;18.10;95.60;;;;;;5092936;28;20040;-85
2023/06/03 09:30:05;;;;;;;4.22;1.65;;;18.20;95.80;;;;;;5093508;28;20506;-85
2023/06/03 09:32:31;;;;;;;2.38;1.27;;;18.10;95.70;;;;;;5093381;28;20020;-85
2023/06/03 09:34:57;;;;;;;2.83;1.50;;;19.10;95.70;;;;;;5092520;28;20028;-85
2023/06/03 09:37:23;;;;;;;3.67;1.88;;;18.30;95.60;;;;;;5093737;28;20028;-85
2023/06/03 09:39:49;;;;;;;4.75;1.98;;;18.30;95.00;;;;;;5093155;28;20030;-85
2023/06/03 09:42:15;;;;;;;8.25;1.85;;;18.40;95.00;;;;;;5092572;28;20052;-85
2023/06/03 09:44:49;;;;;;;2.08;1.40;;;17.70;94.90;;;;;;5093238;28;20020;-85
2023/06/03 09:47:16;;;;;;;5.95;1.45;;;17.90;94.80;;;;;;5093191;28;20038;-85
2023/06/03 09:50:08;;;;;;;8.23;1.40;;;18.30;95.00;;;;;;5092412;28;20024;-85
2023/06/03 09:52:35;;;;;;;5.50;1.83;;;18.30;95.00;;;;;;5093210;28;20034;-85
2023/06/03 09:55:09;;;;;;;4.40;2.08;;;18.30;94.80;;;;;;5092968;28;20052;-85
2023/06/03 09:57:36;;;;;;;3.72;1.30;;;18.30;95.10;;;;;;5092254;28;20024;-85
2023/06/03 10:00:07;;;;;;;6.95;1.80;;;18.40;94.90;;;;;;5092756;28;20035;-85
2023/06/03 10:02:44;;;;;;;9.55;1.80;;;18.30;94.80;;;;;;5092518;28;20024;-85
2023/06/03 10:05:29;;;;;;;2.78;1.63;;;18.30;95.00;;;;;;5085766;28;20360;-86
2023/06/03 10:07:55;;;;;;;2.58;1.48;;;18.00;94.80;;;;;;5093024;28;20034;-85
2023/06/03 10:10:22;;;;;;;4.95;1.20;;;18.50;94.80;;;;;;5092118;28;20465;-85
2023/06/03 10:12:51;;;;;;;12.63;1.80;;;18.50;94.90;;;;;;5092674;28;20031;-85
2023/06/03 10:15:37;;;;;;;2.60;1.35;;;18.50;94.20;;;;;;5092887;28;20024;-85
2023/06/03 10:18:04;;;;;;;5.18;1.83;;;18.50;94.10;;;;;;5092864;28;20169;-85
2023/06/03 10:20:35;;;;;;;2.45;1.95;;;18.60;94.00;;;;;;5096991;28;20028;-85
2023/06/03 10:23:02;;;;;;;6.05;2.75;;;18.50;94.00;;;;;;5096787;28;20035;-85
2023/06/03 10:25:33;;;;;;;1.73;1.17;;;18.90;94.40;;;;;;5096116;28;20032;-84
2023/06/03 10:28:01;;;;;;;;;;;18.50;94.30;;;;;;5097502;28;20051;-85
2023/06/03 10:30:29;;;;;;;4.72;1.27;;;19.10;93.70;;;;;;5096862;28;20379;-85
2023/06/03 10:32:57;;;;;;;9.43;1.95;;;18.60;93.90;;;;;;5096079;28;20381;-85
2023/06/03 10:35:24;;;;;;;5.72;2.10;;;18.80;94.00;;;;;;5096686;28;20036;-85
2023/06/03 10:37:51;;;;;;;3.00;1.70;;;18.70;93.40;;;;;;5095682;28;20032;-85
2023/06/03 10:40:17;;;;;;;6.05;1.60;;;18.70;94.20;;;;;;5096513;28;20245;-85
2023/06/03 10:42:44;;;;;;;7.45;2.55;;;18.80;93.70;;;;;;5104159;28;20027;-85
2023/06/03 10:45:11;;;;;;;2.33;1.50;;;19.00;93.20;;;;;;5095812;28;20479;-85
2023/06/03 10:47:40;;;;;;;3.00;1.13;;;18.80;94.00;;;;;;5078245;28;20473;-85
2023/06/03 10:50:18;;;;;;;2.03;1.40;;;19.20;93.70;;;;;;5096531;28;20115;-85
2023/06/03 10:53:22;;;;;;;1.40;1.30;;;19.00;93.40;;;;;;5096104;28;20027;-85
2023/06/03 10:56:06;;;;;;;4.65;1.20;;;19.00;93.20;;;;;;5053902;28;20053;-85
2023/06/03 10:58:32;;;;;;;2.22;1.50;;;19.00;93.50;;;;;;5093883;28;20028;-84
2023/06/03 11:00:59;;;;;;;4.00;1.50;;;19.40;93.40;;;;;;5095485;28;20030;-84
2023/06/03 11:03:33;;;;;;;5.63;1.20;;;18.50;93.50;;;;;;5096366;28;20028;-85
2023/06/03 11:06:19;;;;;;;2.65;1.60;;;19.40;93.20;;;;;;5095375;28;20059;-84
2023/06/03 11:09:05;;;;;;;3.33;1.33;;;19.10;92.70;;;;;;5088345;28;20115;-85
2023/06/03 11:11:44;;;;;;;2.85;1.35;;;19.30;92.80;;;;;;5095976;28;20099;-85
2023/06/03 11:14:40;;;;;;;4.35;1.55;;;19.40;92.80;;;;;;5095314;28;20114;-85
2023/06/03 11:17:06;;;;;;;3.40;1.00;;;19.30;92.20;;;;;;5095926;28;20557;-85
2023/06/03 11:19:54;;;;;;;3.40;1.20;;;19.10;92.40;;;;;;5096129;28;20028;-85
2023/06/03 11:22:29;;;;;;;2.97;1.15;;;19.40;92.60;;;;;;5095240;28;20028;-85
2023/06/03 11:25:01;;;;;;;4.82;1.23;;;19.30;92.60;;;;;;5095668;28;20120;-85
2023/06/03 11:27:27;;;;;;;4.63;1.23;;;20.20;92.40;;;;;;5090069;28;20032;-85
2023/06/03 11:29:58;;;;;;;2.65;1.35;;;19.30;91.90;;;;;;5094246;28;20020;-85
2023/06/03 11:32:33;;;;;;;2.55;1.30;;;19.40;92.40;;;;;;5095518;28;20039;-84
2023/06/03 11:35:04;;;;;;;4.25;1.20;;;19.40;92.40;;;;;;5095125;28;20479;-84
2023/06/03 11:37:48;;;;;;;4.10;1.38;;;19.40;92.10;;;;;;5095435;28;20032;-85
2023/06/03 11:40:17;;;;;;;3.90;1.33;;;19.40;92.30;;;;;;5095425;28;20050;-85
2023/06/03 11:42:51;;;;;;;2.80;1.25;;;19.50;92.40;;;;;;5094811;28;20115;-84
2023/06/03 11:45:17;;;;;;;4.82;1.15;;;19.50;92.40;;;;;;5095291;28;20120;-84
2023/06/03 11:47:56;;;;;;;3.08;1.08;;;19.60;91.80;;;;;;5095365;28;20067;-85
2023/06/03 11:50:29;;;;;;;2.88;1.23;;;19.70;92.00;;;;;;5094524;28;20024;-84
2023/06/03 11:52:55;;;;;;;2.75;1.00;;;19.70;92.00;;;;;;5095076;28;20058;-85
2023/06/03 11:55:32;;;;;;;3.72;0.95;;;19.80;92.20;;;;;;5094063;28;20602;-85
2023/06/03 11:58:11;;;;;;;2.88;1.00;;;19.80;91.50;;;;;;5095450;28;20047;-85
2023/06/03 12:00:37;;;;;;;4.15;1.42;;;19.90;91.20;;;;;;5095156;28;20459;-85
2023/06/03 12:03:03;;;;;;;2.67;1.30;;;19.70;91.50;;;;;;5094463;28;20028;-85
2023/06/03 12:05:29;;;;;;;3.47;1.30;;;19.90;91.00;;;;;;5102878;28;20039;-85
2023/06/03 12:07:57;;;;;;;4.85;1.13;;;20.50;91.00;;;;;;5094792;28;20027;-85
2023/06/03 12:10:23;;;;;;;2.60;1.17;;;19.50;90.50;;;;;;5094170;28;20542;-85
2023/06/03 12:12:57;;;;;;;2.90;1.27;;;20.10;90.50;;;;;;5094972;28;20027;-85
2023/06/03 12:15:23;;;;;;;5.15;1.27;;;20.20;90.50;;;;;;5095075;28;20411;-85
2023/06/03 12:17:49;;;;;;;1.23;1.05;;;20.00;89.90;;;;;;5094094;28;20381;-85
2023/06/03 12:20:25;;;;;;;1.55;0.90;;;20.90;89.40;;;;;;5094902;28;20024;-85
2023/06/03 12:23:05;;;;;;;1.58;0.98;;;20.20;89.30;;;;;;5094538;28;20368;-85
2023/06/03 12:25:31;;;;;;;2.35;1.25;;;20.20;89.20;;;;;;5093778;28;20024;-85
2023/06/03 12:27:57;;;;;;;1.17;1.08;;;20.30;89.10;;;;;;5094444;28;20032;-84
2023/06/03 12:30:31;;;;;;;2.45;0.93;;;20.10;87.80;;;;;;5094038;28;20043;-84
2023/06/03 12:32:57;;;;;;;1.10;1.00;;;20.30;87.50;;;;;;5094647;28;20028;-85
2023/06/03 12:35:27;;;;;;;3.95;1.20;;;20.30;86.90;;;;;;5094319;28;20020;-85
2023/06/03 12:38:06;;;;;;;2.25;0.90;;;20.40;87.70;;;;;;5093588;28;20480;-85
2023/06/03 12:40:32;;;;;;;1.58;0.95;;;20.50;86.00;;;;;;5094000;28;20032;-85
2023/06/03 12:42:58;;;;;;;1.27;0.77;;;20.30;85.90;;;;;;5094520;28;20024;-85
2023/06/03 12:45:25;;;;;;;1.23;1.10;;;20.70;86.80;;;;;;5093339;28;20032;-85
2023/06/03 12:47:52;;;;;;;3.42;0.90;;;20.50;84.10;;;;;;5094876;28;20024;-85
2023/06/03 12:50:22;;;;;;;0.95;0.85;;;20.60;84.90;;;;;;5094061;28;20024;-85
2023/06/03 12:52:49;;;;;;;1.52;0.77;;;20.50;84.10;;;;;;5093441;28;20077;-85